Messwerte Maun

Temperatur

Temperatur
°C
1618912800 12.00 12.00 26
1618916400 13.00 13.00 27
1618920000 14.00 14.00 27
1618923600 15.00 15.00 28
1618927200 16.00 16.00
1618930800 17.00 17.00 27
1618934400 18.00 18.00
1618938000 19.00 19.00 22
1618941600 20.00 20.00 21
1618945200 21.00 21.00
1618948800 22.00 22.00 18
1618952400 23.00 23.00 18
1618956000 0.00 0.00 17
1618959600 1.00 1.00 16
1618963200 2.00 2.00
1618966800 3.00 3.00 14
1618970400 4.00 4.00 13
1618974000 5.00 5.00 12
1618977600 6.00 6.00 12
1618981200 7.00 7.00 13
1618984800 8.00 8.00 15
1618988400 9.00 9.00 20
1618992000 10.00 10.00 22
1618995600 11.00 11.00 24

Aktuellste Messwerte

Wettercharakter
Wetter: recht sonnig
Temperatur
24 °C
Feuchtigkeit
45 %
Wind
20 km/hWindrichtung: Ost
Luftdruck
1025 hPa
Messzeit: 21. April 2021, 11.00Datenquelle: METAR

Weitere Messstationen in der Nähe

Messstation Temperatur Entfernung
Kasane 24 °C 301 km
Francistown 22 °C 446 km

Wind

Windrichtung Böen Mittelwind
° km/h km/h
1618912800 12.00 11.00 - 12.00 70° 20
1618916400 13.00 12.00 - 13.00 100° 10
1618920000 14.00 13.00 - 14.00 100° 5
1618923600 15.00 14.00 - 15.00 120° 15
1618927200 16.00 15.00 - 16.00
1618930800 17.00 16.00 - 17.00 120° 10
1618934400 18.00 17.00 - 18.00
1618938000 19.00 18.00 - 19.00 150° 5
1618941600 20.00 19.00 - 20.00 150° 5
1618945200 21.00 20.00 - 21.00
1618948800 22.00 21.00 - 22.00 130° 10
1618952400 23.00 22.00 - 23.00 130° 10
1618956000 0.00 23.00 - 0.00 130° 5
1618959600 1.00 0.00 - 1.00 130° 5
1618963200 2.00 1.00 - 2.00
1618966800 3.00 2.00 - 3.00 130° 5
1618970400 4.00 3.00 - 4.00 130° 5
1618974000 5.00 4.00 - 5.00 120° 5
1618977600 6.00 5.00 - 6.00 120° 15
1618981200 7.00 6.00 - 7.00 110° 10
1618984800 8.00 7.00 - 8.00 110° 10
1618988400 9.00 8.00 - 9.00 70° 20
1618992000 10.00 9.00 - 10.00 70° 10
1618995600 11.00 10.00 - 11.00 70° 20

Ihre Wetterstation

Fehlt Ihre Wetterstation auf unserem Portal?

Schreiben Sie an network@meteonews.ch